sensor_id;sensor_type;location;lat;lon;timestamp;P1;durP1;ratioP1;P2;durP2;ratioP2
26512;SDS011;14186;53.822;10.152;2022-12-18T00:02:39;30.83;;;13.45;;
26512;SDS011;14186;53.822;10.152;2022-12-18T00:07:39;30.67;;;14.27;;
26512;SDS011;14186;53.822;10.152;2022-12-18T00:12:39;29.88;;;13.68;;
26512;SDS011;14186;53.822;10.152;2022-12-18T00:17:41;30.67;;;14.63;;
26512;SDS011;14186;53.822;10.152;2022-12-18T00:22:41;33.25;;;15.27;;
26512;SDS011;14186;53.822;10.152;2022-12-18T00:27:41;29.35;;;14.43;;
26512;SDS011;14186;53.822;10.152;2022-12-18T00:32:43;30.55;;;12.55;;
26512;SDS011;14186;53.822;10.152;2022-12-18T00:37:43;29.02;;;13.27;;
26512;SDS011;14186;53.822;10.152;2022-12-18T00:42:43;26.23;;;11.93;;
26512;SDS011;14186;53.822;10.152;2022-12-18T00:47:45;25.10;;;12.27;;
26512;SDS011;14186;53.822;10.152;2022-12-18T00:52:45;28.33;;;12.60;;
26512;SDS011;14186;53.822;10.152;2022-12-18T00:57:45;31.90;;;12.10;;
26512;SDS011;14186;53.822;10.152;2022-12-18T01:02:47;27.48;;;12.07;;
26512;SDS011;14186;53.822;10.152;2022-12-18T01:07:47;27.20;;;12.45;;
26512;SDS011;14186;53.822;10.152;2022-12-18T01:12:47;29.65;;;13.05;;
26512;SDS011;14186;53.822;10.152;2022-12-18T01:17:49;35.05;;;12.50;;
26512;SDS011;14186;53.822;10.152;2022-12-18T01:22:51;25.63;;;12.13;;
26512;SDS011;14186;53.822;10.152;2022-12-18T01:27:51;29.20;;;12.38;;
26512;SDS011;14186;53.822;10.152;2022-12-18T01:32:53;28.35;;;11.88;;
26512;SDS011;14186;53.822;10.152;2022-12-18T01:37:53;28.15;;;12.45;;
26512;SDS011;14186;53.822;10.152;2022-12-18T01:42:54;26.05;;;11.32;;
26512;SDS011;14186;53.822;10.152;2022-12-18T01:47:56;28.95;;;12.10;;
26512;SDS011;14186;53.822;10.152;2022-12-18T01:52:58;31.00;;;12.75;;
26512;SDS011;14186;53.822;10.152;2022-12-18T01:57:59;24.52;;;12.18;;
26512;SDS011;14186;53.822;10.152;2022-12-18T02:03:01;29.08;;;11.65;;
26512;SDS011;14186;53.822;10.152;2022-12-18T02:08:03;27.63;;;12.23;;
26512;SDS011;14186;53.822;10.152;2022-12-18T02:13:07;26.95;;;13.27;;
26512;SDS011;14186;53.822;10.152;2022-12-18T02:18:14;27.50;;;11.00;;
26512;SDS011;14186;53.822;10.152;2022-12-18T02:23:21;23.73;;;9.68;;
26512;SDS011;14186;53.822;10.152;2022-12-18T02:28:25;24.80;;;10.90;;
26512;SDS011;14186;53.822;10.152;2022-12-18T02:33:28;26.20;;;11.57;;
26512;SDS011;14186;53.822;10.152;2022-12-18T02:38:29;28.30;;;11.60;;
26512;SDS011;14186;53.822;10.152;2022-12-18T02:43:31;25.55;;;11.07;;
26512;SDS011;14186;53.822;10.152;2022-12-18T02:48:32;21.92;;;10.35;;
26512;SDS011;14186;53.822;10.152;2022-12-18T02:53:35;24.83;;;11.25;;
26512;SDS011;14186;53.822;10.152;2022-12-18T02:58:40;25.98;;;10.15;;
26512;SDS011;14186;53.822;10.152;2022-12-18T03:03:47;21.83;;;9.75;;
26512;SDS011;14186;53.822;10.152;2022-12-18T03:08:48;29.17;;;12.00;;
26512;SDS011;14186;53.822;10.152;2022-12-18T03:13:52;24.63;;;10.57;;
26512;SDS011;14186;53.822;10.152;2022-12-18T03:18:54;28.17;;;12.20;;
26512;SDS011;14186;53.822;10.152;2022-12-18T03:23:56;25.05;;;10.57;;
26512;SDS011;14186;53.822;10.152;2022-12-18T03:28:59;23.73;;;10.50;;
26512;SDS011;14186;53.822;10.152;2022-12-18T03:34:01;23.90;;;10.68;;
26512;SDS011;14186;53.822;10.152;2022-12-18T03:39:02;22.20;;;9.77;;
26512;SDS011;14186;53.822;10.152;2022-12-18T03:44:05;24.45;;;10.73;;
26512;SDS011;14186;53.822;10.152;2022-12-18T03:49:09;23.33;;;10.65;;
26512;SDS011;14186;53.822;10.152;2022-12-18T03:54:11;26.08;;;9.77;;
26512;SDS011;14186;53.822;10.152;2022-12-18T03:59:14;24.05;;;9.80;;
26512;SDS011;14186;53.822;10.152;2022-12-18T04:04:15;21.98;;;9.68;;
26512;SDS011;14186;53.822;10.152;2022-12-18T04:09:16;27.73;;;8.80;;
26512;SDS011;14186;53.822;10.152;2022-12-18T04:14:18;23.15;;;8.93;;
26512;SDS011;14186;53.822;10.152;2022-12-18T04:19:18;20.15;;;9.30;;
26512;SDS011;14186;53.822;10.152;2022-12-18T04:24:18;23.45;;;10.23;;
26512;SDS011;14186;53.822;10.152;2022-12-18T04:29:19;23.90;;;10.40;;
26512;SDS011;14186;53.822;10.152;2022-12-18T04:34:20;19.85;;;9.52;;
26512;SDS011;14186;53.822;10.152;2022-12-18T04:39:20;21.50;;;9.35;;
26512;SDS011;14186;53.822;10.152;2022-12-18T04:44:22;21.95;;;9.20;;
26512;SDS011;14186;53.822;10.152;2022-12-18T04:49:22;20.85;;;9.02;;
26512;SDS011;14186;53.822;10.152;2022-12-18T04:54:22;20.60;;;9.00;;
26512;SDS011;14186;53.822;10.152;2022-12-18T04:59:23;21.92;;;9.32;;
26512;SDS011;14186;53.822;10.152;2022-12-18T05:04:24;20.05;;;8.50;;
26512;SDS011;14186;53.822;10.152;2022-12-18T05:09:24;23.13;;;9.85;;
26512;SDS011;14186;53.822;10.152;2022-12-18T05:14:26;27.77;;;9.90;;
26512;SDS011;14186;53.822;10.152;2022-12-18T05:19:26;23.65;;;9.60;;
26512;SDS011;14186;53.822;10.152;2022-12-18T05:24:26;22.35;;;9.52;;
26512;SDS011;14186;53.822;10.152;2022-12-18T05:29:28;23.50;;;9.43;;
26512;SDS011;14186;53.822;10.152;2022-12-18T05:34:28;20.13;;;9.60;;
26512;SDS011;14186;53.822;10.152;2022-12-18T05:39:29;24.67;;;10.68;;
26512;SDS011;14186;53.822;10.152;2022-12-18T05:44:30;24.00;;;9.68;;
26512;SDS011;14186;53.822;10.152;2022-12-18T05:49:30;23.70;;;10.30;;
26512;SDS011;14186;53.822;10.152;2022-12-18T05:54:30;22.05;;;10.00;;
26512;SDS011;14186;53.822;10.152;2022-12-18T05:59:32;24.65;;;10.30;;
26512;SDS011;14186;53.822;10.152;2022-12-18T06:04:33;25.35;;;10.70;;
26512;SDS011;14186;53.822;10.152;2022-12-18T06:09:33;22.77;;;10.15;;
26512;SDS011;14186;53.822;10.152;2022-12-18T06:14:34;22.95;;;9.25;;
26512;SDS011;14186;53.822;10.152;2022-12-18T06:19:35;19.02;;;9.43;;
26512;SDS011;14186;53.822;10.152;2022-12-18T06:24:35;26.67;;;10.30;;
26512;SDS011;14186;53.822;10.152;2022-12-18T06:29:36;24.02;;;10.50;;
26512;SDS011;14186;53.822;10.152;2022-12-18T06:34:37;31.73;;;11.82;;
26512;SDS011;14186;53.822;10.152;2022-12-18T06:39:37;26.80;;;11.52;;
26512;SDS011;14186;53.822;10.152;2022-12-18T06:44:38;22.10;;;10.60;;
26512;SDS011;14186;53.822;10.152;2022-12-18T06:49:39;23.00;;;10.48;;
26512;SDS011;14186;53.822;10.152;2022-12-18T06:54:39;19.75;;;9.52;;
26512;SDS011;14186;53.822;10.152;2022-12-18T06:59:40;27.83;;;9.68;;
26512;SDS011;14186;53.822;10.152;2022-12-18T07:04:40;24.38;;;11.70;;
26512;SDS011;14186;53.822;10.152;2022-12-18T07:09:41;32.42;;;12.82;;
26512;SDS011;14186;53.822;10.152;2022-12-18T07:14:42;39.90;;;14.95;;
26512;SDS011;14186;53.822;10.152;2022-12-18T07:19:42;35.20;;;14.23;;
26512;SDS011;14186;53.822;10.152;2022-12-18T07:24:42;38.13;;;16.80;;
26512;SDS011;14186;53.822;10.152;2022-12-18T07:29:44;36.53;;;16.27;;
26512;SDS011;14186;53.822;10.152;2022-12-18T07:34:44;44.90;;;17.42;;
26512;SDS011;14186;53.822;10.152;2022-12-18T07:39:44;46.22;;;19.55;;
26512;SDS011;14186;53.822;10.152;2022-12-18T07:44:46;41.33;;;16.30;;
26512;SDS011;14186;53.822;10.152;2022-12-18T07:49:46;30.38;;;13.35;;
26512;SDS011;14186;53.822;10.152;2022-12-18T07:54:46;27.50;;;12.88;;
26512;SDS011;14186;53.822;10.152;2022-12-18T07:59:48;31.33;;;13.65;;
26512;SDS011;14186;53.822;10.152;2022-12-18T08:04:48;25.42;;;12.02;;
26512;SDS011;14186;53.822;10.152;2022-12-18T08:09:48;29.63;;;12.55;;
26512;SDS011;14186;53.822;10.152;2022-12-18T08:14:50;31.35;;;14.13;;
26512;SDS011;14186;53.822;10.152;2022-12-18T08:19:50;34.67;;;14.48;;
26512;SDS011;14186;53.822;10.152;2022-12-18T08:24:50;29.17;;;12.70;;
26512;SDS011;14186;53.822;10.152;2022-12-18T08:29:52;26.08;;;10.80;;
26512;SDS011;14186;53.822;10.152;2022-12-18T08:34:52;25.60;;;12.50;;
26512;SDS011;14186;53.822;10.152;2022-12-18T08:39:52;27.40;;;12.15;;
26512;SDS011;14186;53.822;10.152;2022-12-18T08:44:54;29.02;;;12.65;;
26512;SDS011;14186;53.822;10.152;2022-12-18T08:49:54;24.90;;;11.68;;
26512;SDS011;14186;53.822;10.152;2022-12-18T08:54:54;24.20;;;12.25;;
26512;SDS011;14186;53.822;10.152;2022-12-18T08:59:56;26.23;;;11.43;;
26512;SDS011;14186;53.822;10.152;2022-12-18T09:04:56;27.45;;;12.43;;
26512;SDS011;14186;53.822;10.152;2022-12-18T09:09:56;22.95;;;11.40;;
26512;SDS011;14186;53.822;10.152;2022-12-18T09:14:58;24.90;;;12.73;;
26512;SDS011;14186;53.822;10.152;2022-12-18T09:19:58;27.05;;;12.68;;
26512;SDS011;14186;53.822;10.152;2022-12-18T09:24:59;26.20;;;10.98;;
26512;SDS011;14186;53.822;10.152;2022-12-18T09:30:00;22.13;;;10.68;;
26512;SDS011;14186;53.822;10.152;2022-12-18T09:35:00;29.67;;;11.70;;
26512;SDS011;14186;53.822;10.152;2022-12-18T09:40:01;23.02;;;11.15;;
26512;SDS011;14186;53.822;10.152;2022-12-18T09:45:02;26.33;;;12.00;;
26512;SDS011;14186;53.822;10.152;2022-12-18T09:50:04;24.80;;;11.27;;
26512;SDS011;14186;53.822;10.152;2022-12-18T09:55:05;19.50;;;10.25;;
26512;SDS011;14186;53.822;10.152;2022-12-18T10:00:15;22.65;;;11.05;;
26512;SDS011;14186;53.822;10.152;2022-12-18T10:05:16;24.20;;;10.63;;
26512;SDS011;14186;53.822;10.152;2022-12-18T10:10:23;22.70;;;10.07;;
26512;SDS011;14186;53.822;10.152;2022-12-18T10:15:29;21.05;;;10.20;;
26512;SDS011;14186;53.822;10.152;2022-12-18T10:20:32;21.80;;;9.35;;
26512;SDS011;14186;53.822;10.152;2022-12-18T10:25:34;19.88;;;8.55;;
26512;SDS011;14186;53.822;10.152;2022-12-18T10:30:42;14.63;;;7.18;;
26512;SDS011;14186;53.822;10.152;2022-12-18T10:35:42;19.95;;;9.20;;
26512;SDS011;14186;53.822;10.152;2022-12-18T10:40:47;20.73;;;9.07;;
26512;SDS011;14186;53.822;10.152;2022-12-18T10:46:00;16.02;;;8.50;;
26512;SDS011;14186;53.822;10.152;2022-12-18T10:51:00;18.70;;;9.27;;
26512;SDS011;14186;53.822;10.152;2022-12-18T10:56:00;30.60;;;9.77;;
26512;SDS011;14186;53.822;10.152;2022-12-18T11:01:10;21.33;;;9.20;;
26512;SDS011;14186;53.822;10.152;2022-12-18T11:06:12;14.63;;;7.75;;
26512;SDS011;14186;53.822;10.152;2022-12-18T11:11:16;20.08;;;7.97;;
26512;SDS011;14186;53.822;10.152;2022-12-18T11:16:20;19.45;;;8.18;;
26512;SDS011;14186;53.822;10.152;2022-12-18T11:21:20;17.25;;;8.07;;
26512;SDS011;14186;53.822;10.152;2022-12-18T11:26:21;18.02;;;8.25;;
26512;SDS011;14186;53.822;10.152;2022-12-18T11:31:34;17.15;;;7.07;;
26512;SDS011;14186;53.822;10.152;2022-12-18T11:36:36;16.20;;;7.32;;
26512;SDS011;14186;53.822;10.152;2022-12-18T11:41:38;13.05;;;6.90;;
26512;SDS011;14186;53.822;10.152;2022-12-18T11:46:43;17.13;;;8.18;;
26512;SDS011;14186;53.822;10.152;2022-12-18T11:51:47;17.15;;;6.65;;
26512;SDS011;14186;53.822;10.152;2022-12-18T11:56:49;17.38;;;7.53;;
26512;SDS011;14186;53.822;10.152;2022-12-18T12:01:53;17.45;;;7.03;;
26512;SDS011;14186;53.822;10.152;2022-12-18T12:06:56;17.67;;;7.45;;
26512;SDS011;14186;53.822;10.152;2022-12-18T12:12:02;16.33;;;7.83;;
26512;SDS011;14186;53.822;10.152;2022-12-18T12:17:09;16.33;;;8.55;;
26512;SDS011;14186;53.822;10.152;2022-12-18T12:27:14;13.65;;;7.20;;
26512;SDS011;14186;53.822;10.152;2022-12-18T12:32:22;18.40;;;6.70;;
26512;SDS011;14186;53.822;10.152;2022-12-18T12:37:29;16.30;;;7.53;;
26512;SDS011;14186;53.822;10.152;2022-12-18T12:42:34;18.35;;;7.47;;
26512;SDS011;14186;53.822;10.152;2022-12-18T12:47:38;19.00;;;8.98;;
26512;SDS011;14186;53.822;10.152;2022-12-18T12:52:40;24.33;;;8.93;;
26512;SDS011;14186;53.822;10.152;2022-12-18T12:57:41;20.85;;;9.77;;
26512;SDS011;14186;53.822;10.152;2022-12-18T13:02:47;26.10;;;11.00;;
26512;SDS011;14186;53.822;10.152;2022-12-18T13:07:51;23.58;;;10.88;;
26512;SDS011;14186;53.822;10.152;2022-12-18T13:12:55;27.83;;;10.98;;
26512;SDS011;14186;53.822;10.152;2022-12-18T13:18:04;26.95;;;11.32;;
26512;SDS011;14186;53.822;10.152;2022-12-18T13:23:19;34.83;;;11.70;;
26512;SDS011;14186;53.822;10.152;2022-12-18T13:28:20;26.40;;;11.18;;
26512;SDS011;14186;53.822;10.152;2022-12-18T13:33:34;29.92;;;11.85;;
26512;SDS011;14186;53.822;10.152;2022-12-18T13:38:36;26.08;;;10.40;;
26512;SDS011;14186;53.822;10.152;2022-12-18T13:43:39;31.65;;;11.07;;
26512;SDS011;14186;53.822;10.152;2022-12-18T13:48:40;28.25;;;10.98;;
26512;SDS011;14186;53.822;10.152;2022-12-18T13:53:49;23.40;;;11.20;;
26512;SDS011;14186;53.822;10.152;2022-12-18T13:59:03;23.45;;;10.10;;
26512;SDS011;14186;53.822;10.152;2022-12-18T14:04:12;27.02;;;11.32;;
26512;SDS011;14186;53.822;10.152;2022-12-18T14:09:13;30.85;;;10.85;;
26512;SDS011;14186;53.822;10.152;2022-12-18T14:14:14;30.33;;;11.55;;
26512;SDS011;14186;53.822;10.152;2022-12-18T14:19:17;32.78;;;12.15;;
26512;SDS011;14186;53.822;10.152;2022-12-18T14:24:18;29.45;;;12.13;;
26512;SDS011;14186;53.822;10.152;2022-12-18T14:29:23;43.00;;;13.88;;
26512;SDS011;14186;53.822;10.152;2022-12-18T14:34:27;46.88;;;13.68;;
26512;SDS011;14186;53.822;10.152;2022-12-18T14:39:27;43.70;;;14.45;;
26512;SDS011;14186;53.822;10.152;2022-12-18T14:44:27;49.45;;;16.70;;
26512;SDS011;14186;53.822;10.152;2022-12-18T14:49:30;46.42;;;16.38;;
26512;SDS011;14186;53.822;10.152;2022-12-18T14:54:30;49.42;;;17.55;;
26512;SDS011;14186;53.822;10.152;2022-12-18T14:59:31;46.53;;;15.30;;
26512;SDS011;14186;53.822;10.152;2022-12-18T15:04:34;39.08;;;13.68;;
26512;SDS011;14186;53.822;10.152;2022-12-18T15:09:35;45.47;;;15.82;;
26512;SDS011;14186;53.822;10.152;2022-12-18T15:14:38;44.80;;;13.48;;
26512;SDS011;14186;53.822;10.152;2022-12-18T15:19:41;48.42;;;15.98;;
26512;SDS011;14186;53.822;10.152;2022-12-18T15:24:41;38.55;;;13.10;;
26512;SDS011;14186;53.822;10.152;2022-12-18T15:29:41;47.28;;;16.25;;
26512;SDS011;14186;53.822;10.152;2022-12-18T15:34:43;41.45;;;13.68;;
26512;SDS011;14186;53.822;10.152;2022-12-18T15:39:43;57.35;;;16.08;;
26512;SDS011;14186;53.822;10.152;2022-12-18T15:44:43;49.25;;;14.77;;
26512;SDS011;14186;53.822;10.152;2022-12-18T15:49:45;50.97;;;15.65;;
26512;SDS011;14186;53.822;10.152;2022-12-18T15:54:45;48.03;;;15.05;;
26512;SDS011;14186;53.822;10.152;2022-12-18T15:59:45;51.25;;;15.63;;
26512;SDS011;14186;53.822;10.152;2022-12-18T16:04:46;43.40;;;14.98;;
26512;SDS011;14186;53.822;10.152;2022-12-18T16:09:47;47.83;;;15.93;;
26512;SDS011;14186;53.822;10.152;2022-12-18T16:14:47;38.78;;;14.13;;
26512;SDS011;14186;53.822;10.152;2022-12-18T16:19:49;42.28;;;15.40;;
26512;SDS011;14186;53.822;10.152;2022-12-18T16:24:49;43.13;;;15.02;;
26512;SDS011;14186;53.822;10.152;2022-12-18T16:29:50;48.70;;;15.98;;
26512;SDS011;14186;53.822;10.152;2022-12-18T16:34:52;51.83;;;17.92;;
26512;SDS011;14186;53.822;10.152;2022-12-18T16:39:52;43.65;;;16.58;;
26512;SDS011;14186;53.822;10.152;2022-12-18T16:44:52;35.47;;;13.90;;
26512;SDS011;14186;53.822;10.152;2022-12-18T16:49:54;44.47;;;14.85;;
26512;SDS011;14186;53.822;10.152;2022-12-18T16:54:54;41.33;;;14.80;;
26512;SDS011;14186;53.822;10.152;2022-12-18T16:59:54;38.40;;;13.98;;
26512;SDS011;14186;53.822;10.152;2022-12-18T17:04:56;38.20;;;13.82;;
26512;SDS011;14186;53.822;10.152;2022-12-18T17:09:56;37.88;;;14.68;;
26512;SDS011;14186;53.822;10.152;2022-12-18T17:14:57;44.58;;;15.10;;
26512;SDS011;14186;53.822;10.152;2022-12-18T17:19:58;40.65;;;14.18;;
26512;SDS011;14186;53.822;10.152;2022-12-18T17:24:58;47.55;;;16.38;;
26512;SDS011;14186;53.822;10.152;2022-12-18T17:29:58;37.25;;;13.45;;
26512;SDS011;14186;53.822;10.152;2022-12-18T17:35:00;30.70;;;12.98;;
26512;SDS011;14186;53.822;10.152;2022-12-18T17:40:00;35.88;;;13.88;;
26512;SDS011;14186;53.822;10.152;2022-12-18T17:45:00;32.88;;;13.10;;
26512;SDS011;14186;53.822;10.152;2022-12-18T17:50:02;33.35;;;12.55;;
26512;SDS011;14186;53.822;10.152;2022-12-18T17:55:02;37.38;;;13.93;;
26512;SDS011;14186;53.822;10.152;2022-12-18T18:00:03;34.90;;;13.02;;
26512;SDS011;14186;53.822;10.152;2022-12-18T18:05:06;30.65;;;12.77;;
26512;SDS011;14186;53.822;10.152;2022-12-18T18:10:06;29.65;;;11.60;;
26512;SDS011;14186;53.822;10.152;2022-12-18T18:15:07;31.13;;;12.00;;
26512;SDS011;14186;53.822;10.152;2022-12-18T18:20:09;32.22;;;13.02;;
26512;SDS011;14186;53.822;10.152;2022-12-18T18:25:09;29.00;;;11.85;;
26512;SDS011;14186;53.822;10.152;2022-12-18T18:30:10;27.73;;;11.55;;
26512;SDS011;14186;53.822;10.152;2022-12-18T18:35:12;28.00;;;11.43;;
26512;SDS011;14186;53.822;10.152;2022-12-18T18:40:12;24.20;;;9.90;;
26512;SDS011;14186;53.822;10.152;2022-12-18T18:45:12;36.90;;;13.07;;
26512;SDS011;14186;53.822;10.152;2022-12-18T18:50:14;32.28;;;12.27;;
26512;SDS011;14186;53.822;10.152;2022-12-18T18:55:14;28.83;;;11.90;;
26512;SDS011;14186;53.822;10.152;2022-12-18T19:00:15;32.88;;;13.60;;
26512;SDS011;14186;53.822;10.152;2022-12-18T19:05:16;26.55;;;11.30;;
26512;SDS011;14186;53.822;10.152;2022-12-18T19:10:17;29.58;;;11.02;;
26512;SDS011;14186;53.822;10.152;2022-12-18T19:15:17;29.58;;;11.38;;
26512;SDS011;14186;53.822;10.152;2022-12-18T19:20:18;28.80;;;11.77;;
26512;SDS011;14186;53.822;10.152;2022-12-18T19:25:19;26.73;;;10.68;;
26512;SDS011;14186;53.822;10.152;2022-12-18T19:30:19;31.77;;;11.48;;
26512;SDS011;14186;53.822;10.152;2022-12-18T19:35:21;27.65;;;11.48;;
26512;SDS011;14186;53.822;10.152;2022-12-18T19:40:21;34.30;;;13.52;;
26512;SDS011;14186;53.822;10.152;2022-12-18T19:45:21;38.10;;;13.43;;
26512;SDS011;14186;53.822;10.152;2022-12-18T19:50:22;31.13;;;12.88;;
26512;SDS011;14186;53.822;10.152;2022-12-18T19:55:23;26.45;;;10.30;;
26512;SDS011;14186;53.822;10.152;2022-12-18T20:00:23;27.60;;;11.98;;
26512;SDS011;14186;53.822;10.152;2022-12-18T20:05:25;35.92;;;12.27;;
26512;SDS011;14186;53.822;10.152;2022-12-18T20:10:25;26.25;;;11.77;;
26512;SDS011;14186;53.822;10.152;2022-12-18T20:15:25;26.17;;;9.98;;
26512;SDS011;14186;53.822;10.152;2022-12-18T20:20:27;27.48;;;11.18;;
26512;SDS011;14186;53.822;10.152;2022-12-18T20:25:27;28.52;;;11.93;;
26512;SDS011;14186;53.822;10.152;2022-12-18T20:30:27;30.38;;;12.23;;
26512;SDS011;14186;53.822;10.152;2022-12-18T20:35:30;28.60;;;12.23;;
26512;SDS011;14186;53.822;10.152;2022-12-18T20:40:30;30.15;;;11.73;;
26512;SDS011;14186;53.822;10.152;2022-12-18T20:45:30;34.95;;;12.80;;
26512;SDS011;14186;53.822;10.152;2022-12-18T20:50:32;28.13;;;11.75;;
26512;SDS011;14186;53.822;10.152;2022-12-18T20:55:32;31.85;;;12.65;;
26512;SDS011;14186;53.822;10.152;2022-12-18T21:00:32;31.90;;;11.57;;
26512;SDS011;14186;53.822;10.152;2022-12-18T21:05:34;27.98;;;11.60;;
26512;SDS011;14186;53.822;10.152;2022-12-18T21:10:34;30.20;;;12.95;;
26512;SDS011;14186;53.822;10.152;2022-12-18T21:15:34;33.67;;;13.18;;
26512;SDS011;14186;53.822;10.152;2022-12-18T21:20:36;34.28;;;12.18;;
26512;SDS011;14186;53.822;10.152;2022-12-18T21:25:36;28.33;;;11.45;;
26512;SDS011;14186;53.822;10.152;2022-12-18T21:30:36;32.42;;;13.45;;
26512;SDS011;14186;53.822;10.152;2022-12-18T21:35:38;31.17;;;11.82;;
26512;SDS011;14186;53.822;10.152;2022-12-18T21:40:38;31.55;;;12.48;;
26512;SDS011;14186;53.822;10.152;2022-12-18T21:45:38;28.40;;;11.13;;
26512;SDS011;14186;53.822;10.152;2022-12-18T21:50:40;32.55;;;12.93;;
26512;SDS011;14186;53.822;10.152;2022-12-18T21:55:40;28.75;;;11.73;;
26512;SDS011;14186;53.822;10.152;2022-12-18T22:00:40;28.20;;;12.65;;
26512;SDS011;14186;53.822;10.152;2022-12-18T22:05:41;32.90;;;12.65;;
26512;SDS011;14186;53.822;10.152;2022-12-18T22:10:42;34.47;;;13.38;;
26512;SDS011;14186;53.822;10.152;2022-12-18T22:15:42;31.88;;;12.98;;
26512;SDS011;14186;53.822;10.152;2022-12-18T22:20:43;30.40;;;11.93;;
26512;SDS011;14186;53.822;10.152;2022-12-18T22:25:44;29.42;;;10.60;;
26512;SDS011;14186;53.822;10.152;2022-12-18T22:30:44;28.48;;;11.25;;
26512;SDS011;14186;53.822;10.152;2022-12-18T22:35:45;34.55;;;12.57;;
26512;SDS011;14186;53.822;10.152;2022-12-18T22:40:45;31.77;;;12.65;;
26512;SDS011;14186;53.822;10.152;2022-12-18T22:45:46;28.25;;;11.23;;
26512;SDS011;14186;53.822;10.152;2022-12-18T22:50:47;28.98;;;11.52;;
26512;SDS011;14186;53.822;10.152;2022-12-18T22:55:47;28.88;;;10.90;;
26512;SDS011;14186;53.822;10.152;2022-12-18T23:00:48;32.20;;;12.50;;
26512;SDS011;14186;53.822;10.152;2022-12-18T23:05:49;30.42;;;11.55;;
26512;SDS011;14186;53.822;10.152;2022-12-18T23:10:50;30.85;;;13.25;;
26512;SDS011;14186;53.822;10.152;2022-12-18T23:15:51;30.10;;;11.57;;
26512;SDS011;14186;53.822;10.152;2022-12-18T23:20:52;29.77;;;12.35;;
26512;SDS011;14186;53.822;10.152;2022-12-18T23:25:58;32.17;;;12.45;;
26512;SDS011;14186;53.822;10.152;2022-12-18T23:31:02;29.42;;;11.73;;
26512;SDS011;14186;53.822;10.152;2022-12-18T23:36:04;31.57;;;13.13;;
26512;SDS011;14186;53.822;10.152;2022-12-18T23:41:05;29.17;;;11.90;;
26512;SDS011;14186;53.822;10.152;2022-12-18T23:46:08;31.80;;;13.07;;
26512;SDS011;14186;53.822;10.152;2022-12-18T23:51:11;30.35;;;13.07;;
26512;SDS011;14186;53.822;10.152;2022-12-18T23:56:12;30.27;;;12.23;;
